Airfield :







YOU CAN JOIN US ON...

 
LOGIN :

Register | Disclaimer

   EN    FR    IT 

 









Legend :    VFR   Marginal VFR   IFR   Intensive IFR   Very Intensive IFR
Visi :
Ceiling :
>= 8 km
>= 3000ft
5 to 8 km
1000 to 3000 ft
1500m to 5 km
500 to 1000 ft
800 to 1500m
200 to 500 ft
< 800m
< 200 ft
Symbols :   Thunderstorms  Fog  Heavy snow  Heavy precipitations  Wind > 20 kt






- Airport Elevation : 266 ft
- IATA code : MHT


KMHT - Manchester

CURRENT METAR :
  • 290453Z 00000KT 10SM FEW050 18/12 A2974 RMK AO2 SLP082 T01780117 402890178

EXPIRED METARs :
  • 290353Z 25004KT 10SM CLR 19/12 A2972 RMK AO2 SLP075 T01890117
  • 290253Z 23004KT 10SM CLR 20/12 A2971 RMK AO2 SLP071 T02000117 51021
  • 290153Z 25006KT 10SM CLR 22/12 A2971 RMK AO2 SLP069 T02170117
  • 290053Z VRB06KT 10SM FEW100 23/11 A2968 RMK AO2 SLP059 T02280111

TAF KMHT
Valid from the 29 at 00:00 until the 30 at 00:00 UTC


282320Z 2900/2924 29011KT P6SM FEW070 SCT090
FM291500 32008KT P6SM SCT070
KZBW FIR / North America



MET'MAP, your aeronautical weather chart ! - Copyright ORBIFLY December 2007 - Disclaimer

ORBIFLY MET'MAP TEAM :

Programming & Development : Alexandra Zaïnal
Original concept : Baudouin d'Aumeries
Technical & hardware support : Manuel Goepfert
Assistance : Marc-Olivier Méhu




SOURCES & CREDITS :

   NOAA